Amherstburg, Canada
Current Conditions -  °F | °C
As of 11:14 AM on Wednesday 28 Jan 2015 (Local Time) from KONZ Reporting Station
Clear Clear  
Wind Chill: 15°   Ceiling: Unl
Heat Index: 21°   Visibility: 10mi
Dew Point: 12°   Wind: 5mph
Humidity: 68%   Direction: 150°SSE
Pressure: 30.35"   Gusts: NA
Location:  42.1°N, 83.11°W
Report Text: KONZ 281614Z AUTO 15004KT 10SM CLR M06/M11 A3035 RMK AO2
Loading
Personal Weather Stations






























Interactive Weather Map New forecast layout! Learn more

10-Day Weather Forecast

Advertisements
Track Severe Weather on mobile